Time;durP1;ratioP1;P1;durP2;ratioP2;P2;SDS_P1;SDS_P2;PMS_P1;PMS_P2;Temp;Humidity;BMP_temperature;BMP_pressure;BME280_temperature;BME280_humidity;BME280_pressure;Samples;Min_cycle;Max_cycle;Signal;HPM_P1;HPM_P2
2023/09/20 00:01:24;;;;;;;16.20;7.32;;;16.30;99.90;;;;;;4977141;28;20989;-71
2023/09/20 00:03:50;;;;;;;15.30;6.90;;;16.30;99.90;;;;;;4993200;28;20771;-71
2023/09/20 00:06:17;;;;;;;15.85;6.40;;;16.30;99.90;;;;;;5009835;28;20424;-71
2023/09/20 00:08:47;;;;;;;15.10;6.82;;;16.40;99.90;;;;;;5002297;28;20423;-71
2023/09/20 00:11:15;;;;;;;17.20;6.30;;;16.30;99.90;;;;;;4992418;28;20415;-72
2023/09/20 00:13:42;;;;;;;13.75;6.18;;;16.40;99.90;;;;;;4992207;28;20425;-72
2023/09/20 00:16:09;;;;;;;13.20;6.40;;;16.70;99.90;;;;;;4977020;28;20426;-72
2023/09/20 00:18:38;;;;;;;14.73;6.60;;;16.50;99.90;;;;;;4983279;28;20421;-71
2023/09/20 00:21:04;;;;;;;12.70;5.93;;;16.60;99.90;;;;;;4978029;28;21011;-72
2023/09/20 00:23:30;;;;;;;15.52;6.10;;;16.50;99.90;;;;;;4992323;28;20497;-72
2023/09/20 00:25:56;;;;;;;15.63;6.65;;;16.60;99.90;;;;;;5008149;28;20908;-72
2023/09/20 00:28:22;;;;;;;16.75;6.40;;;16.70;99.90;;;;;;4973715;28;20412;-72
2023/09/20 00:30:48;;;;;;;12.23;5.95;;;16.50;99.90;;;;;;4991010;28;20470;-71
2023/09/20 00:33:14;;;;;;;13.68;5.75;;;16.50;99.90;;;;;;4994021;28;20409;-72
2023/09/20 00:35:40;;;;;;;12.77;6.50;;;16.50;99.90;;;;;;4977347;28;20423;-72
2023/09/20 00:38:07;;;;;;;15.93;5.83;;;16.60;99.90;;;;;;4991115;28;20850;-72
2023/09/20 00:40:35;;;;;;;16.45;6.07;;;16.50;99.90;;;;;;5002743;28;20500;-72
2023/09/20 00:43:04;;;;;;;15.52;5.72;;;16.50;99.90;;;;;;4976762;28;20462;-72
2023/09/20 00:45:30;;;;;;;13.15;5.70;;;16.40;99.90;;;;;;4991461;28;20501;-72
2023/09/20 00:47:58;;;;;;;13.90;5.80;;;16.90;99.90;;;;;;4993837;28;20551;-71
2023/09/20 00:50:27;;;;;;;14.50;5.72;;;16.50;99.90;;;;;;4998190;28;21004;-72
2023/09/20 00:52:54;;;;;;;13.73;5.63;;;16.70;99.90;;;;;;4991035;28;20450;-72
2023/09/20 00:55:24;;;;;;;15.45;6.13;;;16.80;99.90;;;;;;4990254;28;20434;-71
2023/09/20 00:57:53;;;;;;;15.50;5.65;;;16.80;99.90;;;;;;4994086;28;20908;-72
2023/09/20 01:00:29;;;;;;;12.63;5.82;;;16.60;99.90;;;;;;4977383;28;20421;-72
2023/09/20 01:02:57;;;;;;;13.82;6.03;;;16.70;99.90;;;;;;4993896;28;20484;-72
2023/09/20 01:05:25;;;;;;;16.55;6.10;;;16.80;99.90;;;;;;4973914;28;20407;-72
2023/09/20 01:07:57;;;;;;;15.98;5.90;;;16.60;99.90;;;;;;4998694;28;20422;-71
2023/09/20 01:10:26;;;;;;;14.63;6.13;;;16.60;99.90;;;;;;5006977;28;20424;-71
2023/09/20 01:12:56;;;;;;;14.80;5.75;;;16.70;99.90;;;;;;5003139;28;20409;-72
2023/09/20 01:15:22;;;;;;;18.35;5.75;;;16.60;99.90;;;;;;4995956;28;20435;-71
2023/09/20 01:17:53;;;;;;;15.05;5.38;;;16.40;99.90;;;;;;4994317;28;20433;-71
2023/09/20 01:20:20;;;;;;;15.52;5.50;;;16.70;99.90;;;;;;5003873;28;20439;-72
2023/09/20 01:22:54;;;;;;;15.20;5.90;;;16.80;99.90;;;;;;4980829;28;20425;-71
2023/09/20 01:25:30;;;;;;;13.45;5.20;;;16.70;99.90;;;;;;4989703;28;20418;-71
2023/09/20 01:28:03;;;;;;;15.45;5.22;;;16.60;99.90;;;;;;4997114;28;20414;-71
2023/09/20 01:30:31;;;;;;;13.00;4.63;;;16.80;99.90;;;;;;5004936;28;20772;-72
2023/09/20 01:32:59;;;;;;;14.00;5.18;;;16.80;99.90;;;;;;5006035;28;20516;-72
2023/09/20 01:35:28;;;;;;;16.67;4.22;;;16.70;99.90;;;;;;4973296;28;20439;-72
2023/09/20 01:37:55;;;;;;;12.85;4.60;;;16.90;99.90;;;;;;4980215;28;20756;-71
2023/09/20 01:40:25;;;;;;;11.70;5.00;;;16.90;99.90;;;;;;4998035;28;20773;-72
2023/09/20 01:42:58;;;;;;;12.98;4.72;;;17.00;99.90;;;;;;5000219;28;20469;-72
2023/09/20 01:45:24;;;;;;;14.43;5.00;;;16.70;99.90;;;;;;4989286;28;20433;-71
2023/09/20 01:47:51;;;;;;;13.75;5.00;;;16.90;99.90;;;;;;5003233;28;20424;-72
2023/09/20 01:50:22;;;;;;;10.45;4.43;;;16.80;99.90;;;;;;5005538;28;20425;-72
2023/09/20 01:52:55;;;;;;;11.43;4.57;;;16.70;99.90;;;;;;4996885;28;20484;-72
2023/09/20 01:55:22;;;;;;;11.32;4.18;;;17.10;99.90;;;;;;4973787;28;20467;-72
2023/09/20 01:57:49;;;;;;;12.50;4.20;;;17.00;99.90;;;;;;4982278;28;20414;-72
2023/09/20 02:00:16;;;;;;;13.25;4.88;;;17.10;99.90;;;;;;5000712;28;20458;-72
2023/09/20 02:02:46;;;;;;;12.52;4.53;;;16.90;99.90;;;;;;4997624;28;20414;-72
2023/09/20 02:05:13;;;;;;;13.63;4.43;;;16.90;99.90;;;;;;4996594;28;20432;-71
2023/09/20 02:07:39;;;;;;;12.88;4.47;;;17.00;99.90;;;;;;4976672;28;20466;-71
2023/09/20 02:10:07;;;;;;;11.52;4.20;;;17.10;99.90;;;;;;4990064;28;20442;-71
2023/09/20 02:12:34;;;;;;;11.27;4.05;;;17.00;99.90;;;;;;4994949;28;20478;-71
2023/09/20 02:15:01;;;;;;;12.75;4.72;;;17.40;99.90;;;;;;5008006;28;20485;-72
2023/09/20 02:17:28;;;;;;;9.48;4.22;;;17.00;99.90;;;;;;4967915;28;20507;-72
2023/09/20 02:19:54;;;;;;;9.55;4.22;;;17.30;99.90;;;;;;5000452;28;20423;-71
2023/09/20 02:22:20;;;;;;;13.27;4.70;;;17.20;99.90;;;;;;4977569;28;20649;-72
2023/09/20 02:24:46;;;;;;;14.83;4.67;;;17.10;99.90;;;;;;4989099;28;20449;-72
2023/09/20 02:27:13;;;;;;;12.93;4.43;;;17.10;99.90;;;;;;5000841;28;20444;-72
2023/09/20 02:29:38;;;;;;;12.07;4.63;;;17.30;99.90;;;;;;4999384;28;20472;-71
2023/09/20 02:32:04;;;;;;;11.10;4.35;;;17.20;99.90;;;;;;4962652;28;20442;-72
2023/09/20 02:34:30;;;;;;;14.95;4.30;;;17.30;99.90;;;;;;4988590;28;20434;-71
2023/09/20 02:36:56;;;;;;;11.50;4.37;;;17.10;99.90;;;;;;4965609;28;20420;-71
2023/09/20 02:39:24;;;;;;;10.75;4.15;;;17.20;99.90;;;;;;5001371;28;20421;-71
2023/09/20 02:41:49;;;;;;;10.45;4.10;;;17.00;99.90;;;;;;5000641;28;20429;-71
2023/09/20 02:44:15;;;;;;;11.37;3.97;;;17.30;99.90;;;;;;4987131;28;20416;-71
2023/09/20 02:46:41;;;;;;;11.97;4.30;;;17.10;99.90;;;;;;4990518;28;20875;-71
2023/09/20 02:49:07;;;;;;;13.77;4.32;;;17.30;99.90;;;;;;4994863;28;20426;-71
2023/09/20 02:51:35;;;;;;;9.63;3.95;;;17.10;99.90;;;;;;4972046;28;20936;-71
2023/09/20 02:54:01;;;;;;;10.33;4.40;;;17.10;99.90;;;;;;4994709;28;20512;-72
2023/09/20 02:56:27;;;;;;;9.30;3.97;;;17.20;99.90;;;;;;5008371;28;20437;-71
2023/09/20 02:58:53;;;;;;;10.07;4.00;;;16.60;99.90;;;;;;4997116;28;20954;-72
2023/09/20 03:01:19;;;;;;;12.50;4.20;;;17.30;99.90;;;;;;4988618;28;20442;-72
2023/09/20 03:03:44;;;;;;;9.73;3.97;;;17.20;99.90;;;;;;4995038;28;20407;-71
2023/09/20 03:06:10;;;;;;;8.97;3.73;;;17.20;99.90;;;;;;5006897;28;20465;-71
2023/09/20 03:08:44;;;;;;;10.90;4.20;;;17.30;99.90;;;;;;4981382;28;20418;-71
2023/09/20 03:11:18;;;;;;;12.00;4.60;;;17.20;99.90;;;;;;4992626;28;20419;-72
2023/09/20 03:13:43;;;;;;;10.85;4.10;;;17.40;99.90;;;;;;5002175;28;20439;-71
2023/09/20 03:16:15;;;;;;;9.38;4.28;;;17.30;99.90;;;;;;4988848;28;20484;-71
2023/09/20 03:18:41;;;;;;;10.27;4.13;;;17.00;99.90;;;;;;4975527;28;20842;-72
2023/09/20 03:21:07;;;;;;;9.47;4.17;;;17.20;99.90;;;;;;4983837;28;20450;-72
2023/09/20 03:23:33;;;;;;;14.95;4.18;;;16.90;99.90;;;;;;5007633;28;20496;-71
2023/09/20 03:26:01;;;;;;;9.27;4.22;;;17.10;99.90;;;;;;4978133;28;20502;-71
2023/09/20 03:28:26;;;;;;;12.65;4.25;;;16.90;99.90;;;;;;4973635;28;20420;-71
2023/09/20 03:30:53;;;;;;;9.20;4.28;;;16.90;99.90;;;;;;4974914;28;20748;-71
2023/09/20 03:33:20;;;;;;;12.93;4.60;;;17.00;99.90;;;;;;4991534;28;20603;-71
2023/09/20 03:35:46;;;;;;;11.85;4.47;;;17.00;99.90;;;;;;4971268;28;20458;-72
2023/09/20 03:38:14;;;;;;;9.90;4.33;;;17.00;99.90;;;;;;4971540;28;20411;-71
2023/09/20 03:40:41;;;;;;;14.90;4.90;;;17.10;99.90;;;;;;4992092;28;20774;-72
2023/09/20 03:43:08;;;;;;;12.60;4.75;;;17.00;99.90;;;;;;4987865;28;20971;-72
2023/09/20 03:45:34;;;;;;;9.85;4.20;;;17.10;99.90;;;;;;4994652;28;20456;-72
2023/09/20 03:48:01;;;;;;;12.33;4.33;;;17.10;99.90;;;;;;5003999;28;20772;-72
2023/09/20 03:50:27;;;;;;;13.70;4.50;;;17.10;99.90;;;;;;4976387;28;20462;-72
2023/09/20 03:52:53;;;;;;;11.00;4.10;;;17.20;99.90;;;;;;4972173;28;20507;-72
2023/09/20 03:55:23;;;;;;;9.70;4.15;;;17.30;99.90;;;;;;4988125;28;20423;-71
2023/09/20 03:57:49;;;;;;;10.43;4.30;;;16.90;99.90;;;;;;4971383;28;20411;-71
2023/09/20 04:00:17;;;;;;;12.30;4.40;;;17.30;99.90;;;;;;4985553;28;20435;-72
2023/09/20 04:02:45;;;;;;;13.02;4.38;;;17.20;99.90;;;;;;4988326;28;20899;-72
2023/09/20 04:05:13;;;;;;;13.38;4.75;;;17.10;99.90;;;;;;4983008;28;20419;-71
2023/09/20 04:07:40;;;;;;;12.15;4.57;;;16.90;99.90;;;;;;4987781;28;20425;-71
2023/09/20 04:10:07;;;;;;;10.80;4.50;;;17.20;99.90;;;;;;4995242;28;20432;-71
2023/09/20 04:12:34;;;;;;;13.53;4.47;;;17.10;99.90;;;;;;4996624;28;20741;-71
2023/09/20 04:14:59;;;;;;;11.77;4.35;;;16.90;99.90;;;;;;4982300;28;20454;-71
2023/09/20 04:17:28;;;;;;;11.13;4.47;;;16.90;99.90;;;;;;4981186;28;20433;-72
2023/09/20 04:19:54;;;;;;;14.95;4.72;;;16.70;99.90;;;;;;4974832;28;20430;-71
2023/09/20 04:22:20;;;;;;;10.65;4.35;;;16.80;99.90;;;;;;4972995;28;20411;-71
2023/09/20 04:24:45;;;;;;;12.83;4.70;;;16.70;99.90;;;;;;4972043;28;20417;-72
2023/09/20 04:27:11;;;;;;;16.97;4.73;;;16.50;99.90;;;;;;4992465;28;20418;-71
2023/09/20 04:29:37;;;;;;;13.35;4.30;;;16.50;99.90;;;;;;5005707;28;20440;-71
2023/09/20 04:32:04;;;;;;;11.30;4.32;;;16.60;99.90;;;;;;4976028;28;20439;-71
2023/09/20 04:34:30;;;;;;;12.13;4.28;;;16.40;99.90;;;;;;4976759;28;20825;-71
2023/09/20 04:36:56;;;;;;;11.10;4.65;;;16.50;99.90;;;;;;4990509;28;20410;-71
2023/09/20 04:39:24;;;;;;;13.17;4.70;;;16.30;99.90;;;;;;4997290;28;20425;-71
2023/09/20 04:41:50;;;;;;;13.27;4.75;;;16.20;99.90;;;;;;4999547;28;20407;-71
2023/09/20 04:44:16;;;;;;;13.77;4.85;;;16.30;99.90;;;;;;5003042;28;20770;-71
2023/09/20 04:46:43;;;;;;;12.70;4.43;;;16.00;99.90;;;;;;4993515;28;20932;-71
2023/09/20 04:49:10;;;;;;;11.65;4.35;;;16.10;99.90;;;;;;4993848;28;20430;-72
2023/09/20 04:51:37;;;;;;;13.00;4.80;;;15.70;99.90;;;;;;4992667;28;20897;-71
2023/09/20 04:54:04;;;;;;;11.45;4.50;;;16.00;99.90;;;;;;4991227;28;20438;-71
2023/09/20 04:56:30;;;;;;;9.15;4.32;;;16.30;99.90;;;;;;4999073;28;20488;-71
2023/09/20 04:58:57;;;;;;;13.07;4.67;;;16.20;99.90;;;;;;5005055;28;20635;-71
2023/09/20 05:01:26;;;;;;;14.80;4.82;;;15.90;99.90;;;;;;4981504;28;20434;-71
2023/09/20 05:03:52;;;;;;;20.50;4.60;;;16.00;99.90;;;;;;4989812;28;20407;-72
2023/09/20 05:06:19;;;;;;;13.77;4.72;;;16.00;99.90;;;;;;5006265;28;20461;-72
2023/09/20 05:08:45;;;;;;;12.93;4.60;;;16.10;99.90;;;;;;4981589;28;20500;-71
2023/09/20 05:11:13;;;;;;;11.75;4.22;;;16.00;99.90;;;;;;4989828;28;20545;-71
2023/09/20 05:13:39;;;;;;;11.98;4.70;;;16.00;99.90;;;;;;4995611;28;20424;-71
2023/09/20 05:16:05;;;;;;;11.30;4.70;;;16.10;99.90;;;;;;5006182;28;20432;-71
2023/09/20 05:18:31;;;;;;;13.37;4.50;;;16.10;99.90;;;;;;4990360;28;20423;-71
2023/09/20 05:20:58;;;;;;;13.40;4.37;;;16.10;99.90;;;;;;5003732;28;20421;-71
2023/09/20 05:23:24;;;;;;;11.40;4.80;;;16.20;99.90;;;;;;4971913;28;20417;-71
2023/09/20 05:25:50;;;;;;;14.27;4.57;;;16.00;99.90;;;;;;4991466;28;20921;-71
2023/09/20 05:28:16;;;;;;;10.93;4.00;;;16.00;99.90;;;;;;4986757;28;20428;-71
2023/09/20 05:30:46;;;;;;;14.57;4.60;;;16.20;99.90;;;;;;5007214;28;20436;-71
2023/09/20 05:33:12;;;;;;;12.65;4.80;;;16.00;99.90;;;;;;4961699;28;20852;-71
2023/09/20 05:35:47;;;;;;;13.57;4.35;;;16.10;99.90;;;;;;5047033;28;20464;-71
2023/09/20 05:38:13;;;;;;;12.25;4.43;;;16.40;99.90;;;;;;4998218;28;20910;-71
2023/09/20 05:40:38;;;;;;;12.23;4.47;;;16.20;99.90;;;;;;4990694;28;20433;-71
2023/09/20 05:43:06;;;;;;;11.23;4.57;;;16.20;99.90;;;;;;4972005;28;20427;-71
2023/09/20 05:45:33;;;;;;;10.73;4.00;;;16.20;99.90;;;;;;4994504;28;20970;-71
2023/09/20 05:48:01;;;;;;;10.10;4.43;;;16.20;99.90;;;;;;4996130;28;20589;-71
2023/09/20 05:50:36;;;;;;;10.55;4.13;;;16.30;99.90;;;;;;4990034;28;20434;-71
2023/09/20 05:53:06;;;;;;;11.43;4.20;;;16.30;99.90;;;;;;4976588;28;20419;-71
2023/09/20 05:55:36;;;;;;;10.88;4.28;;;16.20;99.90;;;;;;4978360;28;20751;-71
2023/09/20 05:58:02;;;;;;;11.98;4.22;;;16.20;99.90;;;;;;4973193;28;20759;-72
2023/09/20 06:00:29;;;;;;;9.88;3.88;;;16.30;99.90;;;;;;4988646;28;20426;-71
2023/09/20 06:02:59;;;;;;;13.13;4.55;;;16.10;99.90;;;;;;4977005;28;20407;-72
2023/09/20 06:05:26;;;;;;;11.48;3.92;;;16.20;99.90;;;;;;4991600;28;20413;-71
2023/09/20 06:07:57;;;;;;;11.68;3.70;;;16.10;99.90;;;;;;5001558;28;20407;-71
2023/09/20 06:10:23;;;;;;;12.98;3.70;;;16.40;99.90;;;;;;4987979;28;20430;-72
2023/09/20 06:12:53;;;;;;;10.15;3.55;;;16.20;99.90;;;;;;4991323;28;20494;-71
2023/09/20 06:15:19;;;;;;;8.82;3.58;;;16.50;99.90;;;;;;4968454;28;21009;-71
2023/09/20 06:17:47;;;;;;;11.57;3.97;;;16.60;99.90;;;;;;5003057;28;20413;-71
2023/09/20 06:20:19;;;;;;;9.70;3.65;;;16.40;99.90;;;;;;4996744;28;20516;-71
2023/09/20 06:22:54;;;;;;;9.45;3.45;;;16.30;99.90;;;;;;4991770;28;20490;-71
2023/09/20 06:25:21;;;;;;;9.80;3.40;;;16.20;99.90;;;;;;4998774;28;20427;-71
2023/09/20 06:27:50;;;;;;;8.80;3.67;;;16.70;99.90;;;;;;4998297;28;20421;-71
2023/09/20 06:30:17;;;;;;;10.13;3.40;;;16.30;99.90;;;;;;4999362;28;20430;-71
2023/09/20 06:32:44;;;;;;;10.40;3.38;;;16.50;99.90;;;;;;4994721;28;20483;-72
2023/09/20 06:35:11;;;;;;;10.95;3.47;;;16.80;99.90;;;;;;4988542;28;20430;-71
2023/09/20 06:37:45;;;;;;;10.35;3.50;;;16.80;99.90;;;;;;4972689;28;20429;-71
2023/09/20 06:40:21;;;;;;;11.30;3.87;;;16.70;99.90;;;;;;4994776;28;20425;-71
2023/09/20 06:42:47;;;;;;;7.77;2.90;;;16.60;99.90;;;;;;4976130;28;20411;-71
2023/09/20 06:45:13;;;;;;;7.43;3.03;;;16.60;99.90;;;;;;4987849;28;20418;-71
2023/09/20 06:47:40;;;;;;;10.17;3.63;;;16.60;99.90;;;;;;4987525;28;20441;-71
2023/09/20 06:50:07;;;;;;;7.53;3.28;;;16.60;99.90;;;;;;4993428;28;20438;-72
2023/09/20 06:52:33;;;;;;;8.65;3.45;;;16.40;99.90;;;;;;4982567;28;20422;-71
2023/09/20 06:54:58;;;;;;;9.00;3.28;;;16.60;99.90;;;;;;5090344;28;20529;-71
2023/09/20 06:57:24;;;;;;;9.37;3.37;;;16.50;99.90;;;;;;4988338;28;20415;-71
2023/09/20 06:59:54;;;;;;;8.57;3.30;;;16.60;99.90;;;;;;4980595;28;20433;-71
2023/09/20 07:02:20;;;;;;;9.68;3.47;;;16.70;99.90;;;;;;4988599;28;20427;-71
2023/09/20 07:04:48;;;;;;;8.07;3.30;;;16.70;99.90;;;;;;4994920;28;20419;-72
2023/09/20 07:07:14;;;;;;;10.85;3.45;;;16.70;99.90;;;;;;4989530;28;20918;-71
2023/09/20 07:09:39;;;;;;;8.43;3.05;;;16.70;99.90;;;;;;5002548;28;20491;-71
2023/09/20 07:12:07;;;;;;;10.32;3.63;;;16.70;99.90;;;;;;4991693;28;20413;-71
2023/09/20 07:14:34;;;;;;;10.10;3.55;;;16.80;99.90;;;;;;4998220;28;20429;-71
2023/09/20 07:17:00;;;;;;;8.55;3.55;;;16.50;99.90;;;;;;5005401;28;20480;-71
2023/09/20 07:19:35;;;;;;;8.25;3.63;;;16.90;99.90;;;;;;5002136;28;20824;-71
2023/09/20 07:22:01;;;;;;;8.25;3.17;;;16.70;99.90;;;;;;4981509;28;20504;-71
2023/09/20 07:24:27;;;;;;;10.18;3.67;;;17.00;99.90;;;;;;5034211;28;20835;-71
2023/09/20 07:26:54;;;;;;;11.30;3.30;;;17.10;99.90;;;;;;5005791;28;20765;-71
2023/09/20 07:29:21;;;;;;;9.25;4.05;;;17.30;99.90;;;;;;4989727;28;20429;-71
2023/09/20 07:31:48;;;;;;;9.73;3.73;;;17.20;99.90;;;;;;4987610;28;20432;-71
2023/09/20 07:34:15;;;;;;;8.13;3.67;;;17.30;99.90;;;;;;4987208;28;20496;-71
2023/09/20 07:36:43;;;;;;;9.73;3.65;;;17.30;99.90;;;;;;4977446;28;20411;-71
2023/09/20 07:39:13;;;;;;;7.85;3.80;;;17.40;99.90;;;;;;4996456;28;20413;-71
2023/09/20 07:41:46;;;;;;;10.10;3.95;;;17.40;99.90;;;;;;4989854;28;20422;-71
2023/09/20 07:44:13;;;;;;;10.32;3.65;;;17.10;99.90;;;;;;4997229;28;20426;-71
2023/09/20 07:46:39;;;;;;;9.15;3.63;;;17.30;99.90;;;;;;4990246;28;20460;-71
2023/09/20 07:49:12;;;;;;;10.68;3.70;;;17.30;99.90;;;;;;4976920;28;20442;-71
2023/09/20 07:51:41;;;;;;;8.10;3.60;;;17.30;99.90;;;;;;5006516;28;20932;-71
2023/09/20 07:54:10;;;;;;;10.48;3.50;;;17.20;99.90;;;;;;4977152;28;20994;-71
2023/09/20 07:56:40;;;;;;;10.85;4.00;;;17.30;99.90;;;;;;5019222;28;20766;-71
2023/09/20 07:59:05;;;;;;;8.60;3.75;;;17.40;99.90;;;;;;4986569;28;20508;-71
2023/09/20 08:01:32;;;;;;;8.83;4.10;;;17.50;99.90;;;;;;4999936;28;20405;-71
2023/09/20 08:03:58;;;;;;;8.00;3.90;;;17.70;99.90;;;;;;4991179;28;20412;-72
2023/09/20 08:06:35;;;;;;;10.15;3.78;;;17.40;99.90;;;;;;4977141;28;20428;-73
2023/09/20 08:09:01;;;;;;;9.90;4.00;;;17.60;99.90;;;;;;4972203;28;20430;-73
2023/09/20 08:11:28;;;;;;;9.20;3.70;;;17.30;99.90;;;;;;4992015;28;20985;-73
2023/09/20 08:13:56;;;;;;;8.27;4.00;;;17.30;99.90;;;;;;4992764;28;20429;-73
2023/09/20 08:16:23;;;;;;;7.28;3.65;;;17.40;99.90;;;;;;5020671;28;20467;-73
2023/09/20 08:19:20;;;;;;;9.40;4.60;;;17.60;99.90;;;;;;4975158;28;20427;-73
2023/09/20 08:21:47;;;;;;;7.78;3.70;;;17.60;99.90;;;;;;4993733;28;20425;-73
2023/09/20 09:00:31;;;;;;;9.77;4.30;;;18.00;99.90;;;;;;4994338;28;20431;-78
2023/09/20 09:03:03;;;;;;;9.60;4.50;;;18.10;99.90;;;;;;5007369;28;20425;-78
2023/09/20 09:05:30;;;;;;;9.27;4.65;;;17.90;99.90;;;;;;4989908;28;20417;-78
2023/09/20 09:07:57;;;;;;;10.98;4.22;;;17.90;99.90;;;;;;5006660;28;20869;-79
2023/09/20 09:10:23;;;;;;;10.60;4.57;;;18.00;99.90;;;;;;4984344;28;20433;-78
2023/09/20 09:12:49;;;;;;;7.83;4.27;;;17.80;99.90;;;;;;5038687;28;20418;-78
2023/09/20 09:15:18;;;;;;;9.63;4.70;;;17.80;99.90;;;;;;5002090;28;20448;-78
2023/09/20 09:17:48;;;;;;;11.52;5.18;;;17.70;99.90;;;;;;5024332;28;20454;-79
2023/09/20 09:20:16;;;;;;;10.50;5.05;;;17.90;99.90;;;;;;5005898;28;20520;-78
2023/09/20 09:22:46;;;;;;;10.77;4.60;;;17.90;99.90;;;;;;5032420;28;20503;-78
2023/09/20 09:25:14;;;;;;;9.07;4.68;;;18.20;99.90;;;;;;5001646;28;20434;-78
2023/09/20 09:27:41;;;;;;;7.68;4.45;;;17.80;99.90;;;;;;5011682;28;20469;-77
2023/09/20 09:30:10;;;;;;;6.97;4.32;;;17.90;99.90;;;;;;4996281;28;20591;-78
2023/09/20 09:32:36;;;;;;;14.07;4.90;;;17.90;99.90;;;;;;5026485;28;20525;-78
2023/09/20 09:35:06;;;;;;;8.80;4.70;;;17.90;99.90;;;;;;4998962;28;20468;-78
2023/09/20 09:37:33;;;;;;;9.50;4.47;;;18.00;99.90;;;;;;5006170;28;20517;-78
2023/09/20 09:40:02;;;;;;;9.30;5.20;;;18.30;99.90;;;;;;5003439;28;20438;-78
2023/09/20 09:42:28;;;;;;;8.97;4.90;;;17.90;99.90;;;;;;4991900;28;20457;-78
2023/09/20 09:44:55;;;;;;;9.13;5.00;;;18.00;99.90;;;;;;4982751;28;20454;-78
2023/09/20 09:47:24;;;;;;;8.30;5.10;;;17.90;99.90;;;;;;4985756;28;20425;-78
2023/09/20 09:49:53;;;;;;;10.15;5.22;;;18.10;99.90;;;;;;4988542;28;20805;-77
2023/09/20 09:52:26;;;;;;;8.35;5.45;;;17.90;99.90;;;;;;4998388;28;20502;-79
2023/09/20 09:54:53;;;;;;;8.38;5.65;;;17.90;99.90;;;;;;4980390;28;20788;-78
2023/09/20 09:57:19;;;;;;;9.87;5.50;;;18.10;99.90;;;;;;5000010;28;20484;-77
2023/09/20 09:59:49;;;;;;;7.70;5.45;;;18.00;99.90;;;;;;5006487;28;20423;-76
2023/09/20 10:02:20;;;;;;;8.02;5.22;;;17.30;99.90;;;;;;4984756;28;20435;-77
2023/09/20 10:05:00;;;;;;;8.70;5.57;;;18.00;99.90;;;;;;4989471;28;20417;-77
2023/09/20 10:07:47;;;;;;;8.05;5.32;;;18.30;99.90;;;;;;4999194;28;20814;-77
2023/09/20 10:10:12;;;;;;;9.47;5.10;;;18.10;99.90;;;;;;5002038;28;20833;-77
2023/09/20 10:12:40;;;;;;;8.50;5.30;;;18.30;99.90;;;;;;4990988;28;20438;-77
2023/09/20 10:15:08;;;;;;;7.65;5.13;;;18.20;99.90;;;;;;4996583;28;20471;-77
2023/09/20 10:17:44;;;;;;;10.13;5.20;;;18.20;99.90;;;;;;4998126;28;21080;-78
2023/09/20 10:20:10;;;;;;;9.32;5.07;;;18.30;99.90;;;;;;4995658;28;20421;-77
2023/09/20 10:22:45;;;;;;;7.70;4.93;;;18.20;99.90;;;;;;4998627;28;20959;-77
2023/09/20 10:25:32;;;;;;;9.20;4.93;;;18.20;99.90;;;;;;4980967;28;20455;-78
2023/09/20 10:28:08;;;;;;;8.80;4.45;;;18.30;99.90;;;;;;4990859;28;20763;-78
2023/09/20 10:31:01;;;;;;;7.80;4.95;;;18.40;99.90;;;;;;4974301;28;20869;-78
2023/09/20 10:33:55;;;;;;;7.50;4.77;;;18.40;99.90;;;;;;4985729;28;20517;-78
2023/09/20 10:36:27;;;;;;;7.88;5.07;;;18.50;99.90;;;;;;4993799;28;20423;-78
2023/09/20 10:39:14;;;;;;;8.55;4.55;;;18.60;99.90;;;;;;5001260;28;20404;-78
2023/09/20 10:41:40;;;;;;;8.20;4.78;;;18.40;99.90;;;;;;5023812;28;20491;-78
2023/09/20 10:44:06;;;;;;;7.95;4.78;;;18.60;99.90;;;;;;4983327;28;20430;-78
2023/09/20 10:46:36;;;;;;;7.63;4.30;;;18.60;99.90;;;;;;4999740;28;20609;-78
2023/09/20 10:49:03;;;;;;;7.05;4.18;;;18.50;99.90;;;;;;4983173;28;20824;-73
2023/09/20 10:51:41;;;;;;;8.43;4.53;;;18.60;99.90;;;;;;4993039;28;20426;-73
2023/09/20 10:54:25;;;;;;;8.20;4.30;;;18.50;99.90;;;;;;4985510;28;20496;-73
2023/09/20 10:56:51;;;;;;;7.70;4.05;;;18.30;99.90;;;;;;4992540;28;20419;-73
2023/09/20 10:59:24;;;;;;;7.30;4.18;;;19.00;99.90;;;;;;5017004;28;20949;-73
2023/09/20 11:01:58;;;;;;;6.00;4.00;;;18.50;99.90;;;;;;4993291;28;20413;-73
2023/09/20 11:04:29;;;;;;;6.70;3.92;;;18.70;99.90;;;;;;5005479;28;20442;-73
2023/09/20 11:06:55;;;;;;;8.43;3.78;;;18.80;99.90;;;;;;4995533;28;20406;-73
2023/09/20 11:09:25;;;;;;;7.53;3.45;;;18.60;99.90;;;;;;4978139;28;20402;-73
2023/09/20 11:11:51;;;;;;;5.82;3.25;;;18.80;99.90;;;;;;4970895;28;20440;-73
2023/09/20 11:14:21;;;;;;;8.17;3.43;;;18.80;99.90;;;;;;4997482;28;20477;-72
2023/09/20 11:16:47;;;;;;;5.78;3.25;;;18.70;99.90;;;;;;4991669;28;20417;-72
2023/09/20 11:19:13;;;;;;;9.43;3.38;;;18.90;99.90;;;;;;4993896;28;20449;-72
2023/09/20 11:21:41;;;;;;;6.90;3.10;;;19.00;99.90;;;;;;4985266;28;20474;-72
2023/09/20 11:24:11;;;;;;;6.63;3.25;;;18.80;99.90;;;;;;4993564;28;20429;-72
2023/09/20 11:26:39;;;;;;;8.75;3.20;;;18.90;99.90;;;;;;4980568;28;20541;-72
2023/09/20 11:29:09;;;;;;;7.07;3.20;;;19.00;99.90;;;;;;4995456;28;20405;-73
2023/09/20 11:31:36;;;;;;;5.63;3.10;;;18.80;99.90;;;;;;4981246;28;20429;-72
2023/09/20 11:34:03;;;;;;;5.93;3.28;;;18.80;99.90;;;;;;5005812;28;20481;-72
2023/09/20 11:36:41;;;;;;;7.43;3.38;;;18.90;99.90;;;;;;5009476;28;21631;-72
2023/09/20 11:39:06;;;;;;;7.10;3.20;;;19.20;99.90;;;;;;5003788;28;20504;-72
2023/09/20 11:41:33;;;;;;;7.25;3.70;;;19.00;99.90;;;;;;5055529;28;20507;-72
2023/09/20 11:44:05;;;;;;;7.57;3.97;;;18.70;99.90;;;;;;5024819;28;20462;-72
2023/09/20 11:46:34;;;;;;;7.13;3.55;;;18.80;99.90;;;;;;4998584;28;20474;-72
2023/09/20 11:49:02;;;;;;;6.55;4.05;;;19.10;99.90;;;;;;5034941;28;20778;-72
2023/09/20 11:51:30;;;;;;;7.50;4.30;;;19.50;99.90;;;;;;4995709;28;20911;-72
2023/09/20 11:53:56;;;;;;;7.63;3.90;;;19.10;99.90;;;;;;5022306;28;20444;-72
2023/09/20 11:56:31;;;;;;;6.82;4.65;;;19.50;99.90;;;;;;4991399;28;20839;-72
2023/09/20 11:59:05;;;;;;;8.25;4.90;;;19.20;99.90;;;;;;4972096;28;20472;-72
2023/09/20 12:01:32;;;;;;;9.60;5.60;;;19.20;99.90;;;;;;5000084;28;20406;-72
2023/09/20 12:04:01;;;;;;;7.50;5.38;;;19.40;99.90;;;;;;4994291;28;20499;-72
2023/09/20 12:06:27;;;;;;;10.95;5.45;;;19.30;99.90;;;;;;5000370;28;20421;-72
2023/09/20 12:08:55;;;;;;;8.20;5.18;;;19.20;99.90;;;;;;5025305;28;20396;-72
2023/09/20 12:11:22;;;;;;;6.35;4.63;;;19.40;99.90;;;;;;5019237;28;20512;-79
2023/09/20 12:13:48;;;;;;;8.65;5.15;;;20.10;99.90;;;;;;4999634;28;20521;-79
2023/09/20 12:16:16;;;;;;;8.07;5.30;;;19.70;99.90;;;;;;4997120;28;20426;-79
2023/09/20 12:18:42;;;;;;;7.68;5.00;;;19.60;99.90;;;;;;5001306;28;20765;-79
2023/09/20 12:21:08;;;;;;;10.43;4.82;;;19.30;99.90;;;;;;5002758;28;20820;-79
2023/09/20 12:23:35;;;;;;;7.60;4.63;;;19.40;99.90;;;;;;4999936;28;20424;-79
2023/09/20 12:26:03;;;;;;;7.97;4.32;;;19.30;99.90;;;;;;5001113;28;20437;-72
2023/09/20 12:28:29;;;;;;;7.43;4.50;;;19.30;99.90;;;;;;4996358;28;20413;-72
2023/09/20 12:30:56;;;;;;;6.70;3.92;;;19.50;99.90;;;;;;4993154;28;21080;-73
2023/09/20 12:33:24;;;;;;;6.78;4.03;;;19.60;99.90;;;;;;4994017;28;20444;-72
2023/09/20 12:35:52;;;;;;;5.80;3.58;;;19.70;99.90;;;;;;4985302;28;21034;-72
2023/09/20 12:38:18;;;;;;;9.38;3.90;;;19.60;99.90;;;;;;4993927;28;20410;-72
2023/09/20 12:40:44;;;;;;;7.25;3.60;;;19.50;99.90;;;;;;4993109;28;20777;-73
2023/09/20 12:43:09;;;;;;;7.80;3.60;;;19.80;99.90;;;;;;4995812;28;20435;-72
2023/09/20 12:45:35;;;;;;;6.93;3.50;;;19.70;99.90;;;;;;4996252;28;20464;-72
2023/09/20 12:48:01;;;;;;;6.87;3.47;;;19.50;99.90;;;;;;4998949;28;20429;-72
2023/09/20 12:50:33;;;;;;;6.80;3.30;;;19.60;99.90;;;;;;4981241;28;20498;-79
2023/09/20 12:52:58;;;;;;;6.72;3.47;;;19.90;99.90;;;;;;4998257;28;20433;-79
2023/09/20 12:55:25;;;;;;;7.73;3.60;;;19.50;99.90;;;;;;4977248;28;20442;-79
2023/09/20 12:57:51;;;;;;;6.20;3.40;;;19.70;99.90;;;;;;4978869;28;20412;-78
2023/09/20 13:00:18;;;;;;;6.25;3.50;;;19.80;99.90;;;;;;4993832;28;20414;-79
2023/09/20 13:02:45;;;;;;;6.90;3.50;;;19.70;99.90;;;;;;4984095;28;20429;-79
2023/09/20 13:05:12;;;;;;;7.10;3.42;;;19.90;99.90;;;;;;4985733;28;20428;-79
2023/09/20 13:07:39;;;;;;;7.45;3.70;;;19.70;99.90;;;;;;4997749;28;20456;-78
2023/09/20 13:10:13;;;;;;;8.95;3.85;;;20.20;99.90;;;;;;4996711;28;20419;-78
2023/09/20 13:12:40;;;;;;;7.45;3.40;;;20.10;99.90;;;;;;4999848;28;20431;-78
2023/09/20 13:15:12;;;;;;;8.43;3.77;;;20.20;99.90;;;;;;5012034;28;20504;-79
2023/09/20 13:17:39;;;;;;;6.60;3.80;;;20.00;99.90;;;;;;4988381;28;20440;-79
2023/09/20 13:20:07;;;;;;;8.68;3.58;;;20.00;99.90;;;;;;5009993;28;20980;-78
2023/09/20 13:22:32;;;;;;;11.18;3.70;;;20.10;99.90;;;;;;4986635;28;20449;-78